Aérodrome :
LOGIN :

S'inscrire | Disclaimer

   EN    FR    IT 

 










Légende :    VFR   VFR Marginal   IFR   IFR Intensif   IFR Très Intensif
Visi : 
Plafond : 
>= 8 km
>= 3000ft
5 à 8 km
1000 à 3000 ft
1500m à 5 km
500 à 1000 ft
800 à 1500m
200 à 500 ft
< 800m
< 200 ft
Symboles :   Orages  Brouillard  Fortes neiges  Fortes précipitations  Vent > 20 kt
SIGMETs :   Divers  Orages  Givrage  Turbulence  Onde Orograph.  Cendres Volcan.






- Altitude de l'aérodrome : 197 ft
- Code IATA : XOG


LFMO - Orange

DERNIER METAR :
  • 041530Z AUTO 18005KT 140V220 9999 BKN015 BKN022 BKN033 21/18 Q1013 NOSIG

METARs EXPIRÉS :
  • 041500Z AUTO 18004KT 150V230 9999 BKN012 BKN020 OVC027 21/19 Q1013 BECMG SCT010 BKN020
  • 041430Z AUTO 19005KT 150V230 9999 BKN010 OVC016 21/18 Q1013 BECMG SCT010 BKN020
  • 041400Z AUTO 17005KT 140V220 9999 SCT010 BKN022 BKN027 20/19 Q1013 TEMPO 2000 TSRA SCT005 BKN010CB
  • 041330Z AUTO 18004KT 9999 -RA FEW012/// SCT027/// BKN037/// ///TCU 20/18 Q1013 TEMPO 2000 TSRA SCT005 BKN010CB
  • 041300Z AUTO 17005KT 140V200 9999 -RA SCT009/// BKN023/// BKN038/// ///TCU 19/18 Q1014 TEMPO 2000 TSRA SCT005 BKN010CB

TAF TAF LFMO
Valide du 04 à 15h jusqu'au 05 à 15h UTC


041400Z 0415/0515 VRB03KT 9999 SCT010 BKN020 TX21/0415Z TN17/0503Z
BECMG 0420/0422 3000 BR
PROB40
TEMPO 0500/0503 0800 FG VV///
BECMG 0508/0509 CAVOK



MET'MAP, la Météo Aéronautique d'un coup d'oeil ! - Copyright ORBIFLY Décembre 2007 - Disclaimer

ORBIFLY MET'MAP TEAM :

Programmation & Développement : Alexandra Zaïnal
Sur une idée originale de : Baudouin d'Aumeries
Assistance à la programmation : Marc-Olivier Méhu
Soutien technique & logistique : Manuel Goepfert

Contact : metmap@orbifly.com




SOURCES & CREDITS :

   NOAA